sensor_id;sensor_type;location;lat;lon;timestamp;pressure;altitude;pressure_sealevel;temperature;humidity
23176;BME280;19910;42.652;23.332;2023-03-04T00:02:16;94652.63;;;6.52;96.60
23176;BME280;19910;42.652;23.332;2023-03-04T00:04:42;94657.91;;;6.29;96.88
23176;BME280;19910;42.652;23.332;2023-03-04T00:07:09;94656.94;;;5.98;98.14
23176;BME280;19910;42.652;23.332;2023-03-04T00:09:37;94657.53;;;5.95;98.04
23176;BME280;19910;42.652;23.332;2023-03-04T00:12:05;94654.38;;;5.88;98.90
23176;BME280;19910;42.652;23.332;2023-03-04T00:14:33;94643.94;;;5.72;99.63
23176;BME280;19910;42.652;23.332;2023-03-04T00:17:00;94637.09;;;5.48;100.00
23176;BME280;19910;42.652;23.332;2023-03-04T00:19:28;94642.19;;;5.49;100.00
23176;BME280;19910;42.652;23.332;2023-03-04T00:21:55;94640.84;;;5.33;100.00
23176;BME280;19910;42.652;23.332;2023-03-04T00:24:22;94641.44;;;5.30;100.00
23176;BME280;19910;42.652;23.332;2023-03-04T00:26:49;94653.78;;;5.31;100.00
23176;BME280;19910;42.652;23.332;2023-03-04T00:29:17;94645.00;;;5.25;100.00
23176;BME280;19910;42.652;23.332;2023-03-04T00:31:44;94645.53;;;5.41;100.00
23176;BME280;19910;42.652;23.332;2023-03-04T00:34:10;94644.63;;;5.32;100.00
23176;BME280;19910;42.652;23.332;2023-03-04T00:36:37;94646.06;;;5.43;100.00
23176;BME280;19910;42.652;23.332;2023-03-04T00:39:04;94637.72;;;5.45;100.00
23176;BME280;19910;42.652;23.332;2023-03-04T00:41:31;94638.91;;;5.52;100.00
23176;BME280;19910;42.652;23.332;2023-03-04T00:43:58;94643.44;;;5.70;100.00
23176;BME280;19910;42.652;23.332;2023-03-04T00:46:26;94649.75;;;5.93;100.00
23176;BME280;19910;42.652;23.332;2023-03-04T00:48:53;94632.63;;;6.03;100.00
23176;BME280;19910;42.652;23.332;2023-03-04T00:51:19;94642.69;;;6.11;99.88
23176;BME280;19910;42.652;23.332;2023-03-04T00:53:46;94634.91;;;6.23;98.87
23176;BME280;19910;42.652;23.332;2023-03-04T00:56:13;94637.63;;;6.10;98.53
23176;BME280;19910;42.652;23.332;2023-03-04T00:58:40;94633.41;;;6.17;98.70
23176;BME280;19910;42.652;23.332;2023-03-04T01:01:07;94630.03;;;6.25;98.76
23176;BME280;19910;42.652;23.332;2023-03-04T01:03:35;94640.31;;;6.23;97.54
23176;BME280;19910;42.652;23.332;2023-03-04T01:06:02;94629.81;;;6.35;97.40
23176;BME280;19910;42.652;23.332;2023-03-04T01:08:28;94637.00;;;6.26;97.18
23176;BME280;19910;42.652;23.332;2023-03-04T01:10:55;94629.72;;;6.40;97.28
23176;BME280;19910;42.652;23.332;2023-03-04T01:13:22;94629.03;;;6.35;96.76
23176;BME280;19910;42.652;23.332;2023-03-04T01:15:48;94619.88;;;6.36;97.30
23176;BME280;19910;42.652;23.332;2023-03-04T01:18:15;94620.06;;;6.39;96.68
23176;BME280;19910;42.652;23.332;2023-03-04T01:20:43;94618.97;;;6.40;96.70
23176;BME280;19910;42.652;23.332;2023-03-04T01:23:10;94611.78;;;6.50;96.42
23176;BME280;19910;42.652;23.332;2023-03-04T01:25:38;94615.06;;;6.47;96.26
23176;BME280;19910;42.652;23.332;2023-03-04T01:28:05;94609.69;;;6.33;96.59
23176;BME280;19910;42.652;23.332;2023-03-04T01:30:31;94610.13;;;6.13;96.80
23176;BME280;19910;42.652;23.332;2023-03-04T01:32:58;94605.66;;;5.94;97.57
23176;BME280;19910;42.652;23.332;2023-03-04T01:35:25;94614.31;;;6.05;97.97
23176;BME280;19910;42.652;23.332;2023-03-04T01:37:53;94609.94;;;5.95;98.06
23176;BME280;19910;42.652;23.332;2023-03-04T01:40:20;94602.63;;;5.82;98.75
23176;BME280;19910;42.652;23.332;2023-03-04T01:42:47;94598.91;;;5.64;99.08
23176;BME280;19910;42.652;23.332;2023-03-04T01:45:16;94596.03;;;5.75;99.06
23176;BME280;19910;42.652;23.332;2023-03-04T01:47:45;94598.34;;;5.81;98.83
23176;BME280;19910;42.652;23.332;2023-03-04T01:50:19;94597.66;;;5.89;98.59
23176;BME280;19910;42.652;23.332;2023-03-04T01:52:46;94589.22;;;5.96;98.02
23176;BME280;19910;42.652;23.332;2023-03-04T01:55:19;94587.28;;;5.83;97.34
23176;BME280;19910;42.652;23.332;2023-03-04T01:57:48;94597.34;;;5.77;96.95
23176;BME280;19910;42.652;23.332;2023-03-04T02:00:23;94593.16;;;5.85;97.86
23176;BME280;19910;42.652;23.332;2023-03-04T02:02:52;94587.81;;;5.85;96.85
23176;BME280;19910;42.652;23.332;2023-03-04T02:05:21;94594.34;;;5.79;97.09
23176;BME280;19910;42.652;23.332;2023-03-04T02:07:49;94590.91;;;5.92;97.28
23176;BME280;19910;42.652;23.332;2023-03-04T02:10:18;94589.22;;;6.10;96.72
23176;BME280;19910;42.652;23.332;2023-03-04T02:12:45;94587.63;;;6.09;96.13
23176;BME280;19910;42.652;23.332;2023-03-04T02:15:12;94586.09;;;6.16;95.83
23176;BME280;19910;42.652;23.332;2023-03-04T02:17:39;94583.31;;;6.21;95.44
23176;BME280;19910;42.652;23.332;2023-03-04T02:20:12;94556.72;;;5.79;95.83
23176;BME280;19910;42.652;23.332;2023-03-04T02:22:47;94584.50;;;5.88;96.15
23176;BME280;19910;42.652;23.332;2023-03-04T02:25:21;94588.38;;;5.82;96.66
23176;BME280;19910;42.652;23.332;2023-03-04T02:27:51;94586.59;;;5.77;96.39
23176;BME280;19910;42.652;23.332;2023-03-04T02:30:22;94586.00;;;5.80;96.39
23176;BME280;19910;42.652;23.332;2023-03-04T02:32:50;94585.41;;;5.83;96.01
23176;BME280;19910;42.652;23.332;2023-03-04T02:35:17;94581.22;;;5.77;96.37
23176;BME280;19910;42.652;23.332;2023-03-04T02:37:45;94584.38;;;5.65;96.23
23176;BME280;19910;42.652;23.332;2023-03-04T02:40:14;94574.94;;;5.82;95.91
23176;BME280;19910;42.652;23.332;2023-03-04T02:42:43;94574.16;;;5.81;95.59
23176;BME280;19910;42.652;23.332;2023-03-04T02:45:36;94569.91;;;5.94;95.30
23176;BME280;19910;42.652;23.332;2023-03-04T02:48:04;94566.13;;;5.95;95.62
23176;BME280;19910;42.652;23.332;2023-03-04T02:50:34;94571.03;;;5.88;95.43
23176;BME280;19910;42.652;23.332;2023-03-04T02:53:01;94574.44;;;5.80;95.59
23176;BME280;19910;42.652;23.332;2023-03-04T02:55:28;94574.06;;;5.72;95.34
23176;BME280;19910;42.652;23.332;2023-03-04T02:57:55;94562.38;;;5.36;96.14
23176;BME280;19910;42.652;23.332;2023-03-04T03:00:22;94571.50;;;5.35;96.64
23176;BME280;19910;42.652;23.332;2023-03-04T03:02:50;94570.81;;;5.29;97.27
23176;BME280;19910;42.652;23.332;2023-03-04T03:05:17;94572.78;;;5.24;97.51
23176;BME280;19910;42.652;23.332;2023-03-04T03:07:44;94576.75;;;5.13;97.78
23176;BME280;19910;42.652;23.332;2023-03-04T03:10:11;94577.72;;;5.03;98.10
23176;BME280;19910;42.652;23.332;2023-03-04T03:12:38;94581.28;;;4.98;98.96
23176;BME280;19910;42.652;23.332;2023-03-04T03:15:05;94567.91;;;4.93;99.19
23176;BME280;19910;42.652;23.332;2023-03-04T03:17:32;94574.09;;;4.94;99.87
23176;BME280;19910;42.652;23.332;2023-03-04T03:20:01;94575.31;;;5.02;99.19
23176;BME280;19910;42.652;23.332;2023-03-04T03:22:27;94572.19;;;4.94;99.12
23176;BME280;19910;42.652;23.332;2023-03-04T03:24:54;94585.38;;;4.77;99.85
23176;BME280;19910;42.652;23.332;2023-03-04T03:27:21;94584.53;;;4.63;100.00
23176;BME280;19910;42.652;23.332;2023-03-04T03:29:48;94575.97;;;4.61;100.00
23176;BME280;19910;42.652;23.332;2023-03-04T03:32:15;94573.63;;;4.73;100.00
23176;BME280;19910;42.652;23.332;2023-03-04T03:34:41;94577.22;;;4.82;100.00
23176;BME280;19910;42.652;23.332;2023-03-04T03:37:10;94567.97;;;4.75;100.00
23176;BME280;19910;42.652;23.332;2023-03-04T03:39:36;94573.56;;;4.78;100.00
23176;BME280;19910;42.652;23.332;2023-03-04T03:42:03;94575.81;;;4.71;100.00
23176;BME280;19910;42.652;23.332;2023-03-04T03:44:30;94561.06;;;4.69;100.00
23176;BME280;19910;42.652;23.332;2023-03-04T03:46:57;94565.66;;;4.68;100.00
23176;BME280;19910;42.652;23.332;2023-03-04T03:49:24;94562.19;;;4.49;100.00
23176;BME280;19910;42.652;23.332;2023-03-04T03:51:50;94562.47;;;4.28;100.00
23176;BME280;19910;42.652;23.332;2023-03-04T03:54:19;94558.19;;;4.27;100.00
23176;BME280;19910;42.652;23.332;2023-03-04T03:56:45;94564.63;;;4.26;100.00
23176;BME280;19910;42.652;23.332;2023-03-04T03:59:12;94562.56;;;4.23;100.00
23176;BME280;19910;42.652;23.332;2023-03-04T04:01:39;94563.72;;;4.17;100.00
23176;BME280;19910;42.652;23.332;2023-03-04T04:04:05;94554.63;;;4.13;100.00
23176;BME280;19910;42.652;23.332;2023-03-04T04:06:32;94552.25;;;4.12;100.00
23176;BME280;19910;42.652;23.332;2023-03-04T04:08:59;94547.34;;;4.19;100.00
23176;BME280;19910;42.652;23.332;2023-03-04T04:11:27;94555.09;;;4.20;100.00
23176;BME280;19910;42.652;23.332;2023-03-04T04:13:54;94549.50;;;4.17;100.00
23176;BME280;19910;42.652;23.332;2023-03-04T04:16:20;94554.28;;;4.20;100.00
23176;BME280;19910;42.652;23.332;2023-03-04T04:18:47;94541.81;;;4.29;100.00
23176;BME280;19910;42.652;23.332;2023-03-04T04:21:14;94556.81;;;4.11;100.00
23176;BME280;19910;42.652;23.332;2023-03-04T04:23:41;94558.50;;;4.07;100.00
23176;BME280;19910;42.652;23.332;2023-03-04T04:26:08;94548.19;;;3.96;100.00
23176;BME280;19910;42.652;23.332;2023-03-04T04:28:36;94553.97;;;4.03;100.00
23176;BME280;19910;42.652;23.332;2023-03-04T04:31:06;94553.59;;;3.90;100.00
23176;BME280;19910;42.652;23.332;2023-03-04T04:33:33;94554.47;;;3.86;100.00
23176;BME280;19910;42.652;23.332;2023-03-04T04:36:00;94555.53;;;3.85;100.00
23176;BME280;19910;42.652;23.332;2023-03-04T04:38:27;94564.16;;;3.82;100.00
23176;BME280;19910;42.652;23.332;2023-03-04T04:40:55;94562.34;;;3.77;100.00
23176;BME280;19910;42.652;23.332;2023-03-04T04:43:22;94553.50;;;3.77;100.00
23176;BME280;19910;42.652;23.332;2023-03-04T04:45:50;94550.81;;;3.77;100.00
23176;BME280;19910;42.652;23.332;2023-03-04T04:48:17;94549.88;;;3.68;100.00
23176;BME280;19910;42.652;23.332;2023-03-04T04:50:44;94549.66;;;3.64;100.00
23176;BME280;19910;42.652;23.332;2023-03-04T04:53:11;94551.66;;;3.53;100.00
23176;BME280;19910;42.652;23.332;2023-03-04T04:55:38;94557.81;;;3.54;100.00
23176;BME280;19910;42.652;23.332;2023-03-04T04:58:05;94567.59;;;3.64;100.00
23176;BME280;19910;42.652;23.332;2023-03-04T05:00:32;94556.19;;;3.77;100.00
23176;BME280;19910;42.652;23.332;2023-03-04T05:03:00;94565.31;;;3.76;100.00
23176;BME280;19910;42.652;23.332;2023-03-04T05:05:26;94567.94;;;3.81;100.00
23176;BME280;19910;42.652;23.332;2023-03-04T05:07:53;94567.81;;;3.91;100.00
23176;BME280;19910;42.652;23.332;2023-03-04T05:10:20;94570.44;;;3.96;100.00
23176;BME280;19910;42.652;23.332;2023-03-04T05:12:47;94577.88;;;3.99;100.00
23176;BME280;19910;42.652;23.332;2023-03-04T05:15:14;94574.63;;;4.02;100.00
23176;BME280;19910;42.652;23.332;2023-03-04T05:17:41;94572.59;;;3.94;100.00
23176;BME280;19910;42.652;23.332;2023-03-04T05:20:10;94583.03;;;4.14;100.00
23176;BME280;19910;42.652;23.332;2023-03-04T05:22:37;94582.78;;;4.35;100.00
23176;BME280;19910;42.652;23.332;2023-03-04T05:25:04;94581.91;;;4.58;99.94
23176;BME280;19910;42.652;23.332;2023-03-04T05:27:31;94585.72;;;4.71;98.11
23176;BME280;19910;42.652;23.332;2023-03-04T05:29:58;94589.56;;;4.83;98.29
23176;BME280;19910;42.652;23.332;2023-03-04T05:32:25;94588.31;;;4.94;97.15
23176;BME280;19910;42.652;23.332;2023-03-04T05:34:52;94589.94;;;5.09;96.88
23176;BME280;19910;42.652;23.332;2023-03-04T05:37:20;94590.56;;;5.20;95.28
23176;BME280;19910;42.652;23.332;2023-03-04T05:39:47;94590.47;;;5.11;95.65
23176;BME280;19910;42.652;23.332;2023-03-04T05:42:14;94587.31;;;5.23;95.29
23176;BME280;19910;42.652;23.332;2023-03-04T05:44:40;94592.66;;;5.23;93.13
23176;BME280;19910;42.652;23.332;2023-03-04T05:47:07;94585.44;;;5.37;93.58
23176;BME280;19910;42.652;23.332;2023-03-04T05:49:34;94592.22;;;5.48;94.29
23176;BME280;19910;42.652;23.332;2023-03-04T05:52:00;94590.16;;;5.59;94.87
23176;BME280;19910;42.652;23.332;2023-03-04T05:54:29;94595.34;;;5.55;94.42
23176;BME280;19910;42.652;23.332;2023-03-04T05:56:56;94598.41;;;5.49;93.71
23176;BME280;19910;42.652;23.332;2023-03-04T05:59:22;94592.16;;;5.67;93.26
23176;BME280;19910;42.652;23.332;2023-03-04T06:01:49;94589.53;;;5.48;92.88
23176;BME280;19910;42.652;23.332;2023-03-04T06:04:16;94597.50;;;5.53;93.85
23176;BME280;19910;42.652;23.332;2023-03-04T06:06:43;94608.84;;;5.50;95.08
23176;BME280;19910;42.652;23.332;2023-03-04T06:09:11;94602.09;;;5.66;94.40
23176;BME280;19910;42.652;23.332;2023-03-04T06:11:39;94600.59;;;5.60;94.89
23176;BME280;19910;42.652;23.332;2023-03-04T06:14:06;94612.47;;;5.59;94.25
23176;BME280;19910;42.652;23.332;2023-03-04T06:16:33;94612.25;;;5.23;95.57
23176;BME280;19910;42.652;23.332;2023-03-04T06:18:59;94612.91;;;5.02;96.43
23176;BME280;19910;42.652;23.332;2023-03-04T06:21:26;94609.69;;;5.18;96.90
23176;BME280;19910;42.652;23.332;2023-03-04T06:23:53;94616.03;;;5.22;95.89
23176;BME280;19910;42.652;23.332;2023-03-04T06:26:20;94616.00;;;5.41;95.32
23176;BME280;19910;42.652;23.332;2023-03-04T06:28:48;94611.91;;;5.30;95.79
23176;BME280;19910;42.652;23.332;2023-03-04T06:31:15;94617.63;;;5.56;95.10
23176;BME280;19910;42.652;23.332;2023-03-04T06:33:41;94612.50;;;5.87;95.30
23176;BME280;19910;42.652;23.332;2023-03-04T06:36:08;94608.13;;;6.18;93.67
23176;BME280;19910;42.652;23.332;2023-03-04T06:38:35;94604.22;;;6.38;91.98
23176;BME280;19910;42.652;23.332;2023-03-04T06:41:06;94604.09;;;6.43;90.13
23176;BME280;19910;42.652;23.332;2023-03-04T06:43:33;94616.00;;;6.28;91.62
23176;BME280;19910;42.652;23.332;2023-03-04T06:46:02;94607.47;;;6.49;92.78
23176;BME280;19910;42.652;23.332;2023-03-04T06:48:28;94615.66;;;6.43;91.88
23176;BME280;19910;42.652;23.332;2023-03-04T06:50:55;94620.13;;;6.48;91.36
23176;BME280;19910;42.652;23.332;2023-03-04T06:53:22;94625.22;;;6.50;92.11
23176;BME280;19910;42.652;23.332;2023-03-04T06:55:49;94621.00;;;6.57;91.30
23176;BME280;19910;42.652;23.332;2023-03-04T06:58:16;94619.38;;;6.70;92.15
23176;BME280;19910;42.652;23.332;2023-03-04T07:00:42;94627.34;;;6.75;90.60
23176;BME280;19910;42.652;23.332;2023-03-04T07:03:11;94630.28;;;6.65;91.31
23176;BME280;19910;42.652;23.332;2023-03-04T07:05:38;94629.44;;;6.78;90.92
23176;BME280;19910;42.652;23.332;2023-03-04T07:08:05;94625.81;;;6.47;90.02
23176;BME280;19910;42.652;23.332;2023-03-04T07:10:32;94635.50;;;6.48;91.99
23176;BME280;19910;42.652;23.332;2023-03-04T07:12:59;94622.25;;;6.37;91.54
23176;BME280;19910;42.652;23.332;2023-03-04T07:15:26;94627.63;;;6.37;91.42
23176;BME280;19910;42.652;23.332;2023-03-04T07:17:53;94631.59;;;6.54;92.19
23176;BME280;19910;42.652;23.332;2023-03-04T07:20:21;94631.88;;;6.66;91.93
23176;BME280;19910;42.652;23.332;2023-03-04T07:22:48;94633.47;;;6.67;91.00
23176;BME280;19910;42.652;23.332;2023-03-04T07:25:15;94625.97;;;6.77;91.45
23176;BME280;19910;42.652;23.332;2023-03-04T07:27:42;94635.69;;;6.87;90.39
23176;BME280;19910;42.652;23.332;2023-03-04T07:30:10;94632.06;;;7.05;90.24
23176;BME280;19910;42.652;23.332;2023-03-04T07:32:37;94637.19;;;7.16;89.33
23176;BME280;19910;42.652;23.332;2023-03-04T07:35:04;94630.34;;;7.09;89.51
23176;BME280;19910;42.652;23.332;2023-03-04T07:37:33;94635.59;;;7.14;88.72
23176;BME280;19910;42.652;23.332;2023-03-04T07:40:03;94628.63;;;6.91;87.80
23176;BME280;19910;42.652;23.332;2023-03-04T07:42:32;94633.91;;;6.96;87.85
23176;BME280;19910;42.652;23.332;2023-03-04T07:44:59;94635.34;;;7.02;87.40
23176;BME280;19910;42.652;23.332;2023-03-04T07:47:26;94631.22;;;7.19;87.57
23176;BME280;19910;42.652;23.332;2023-03-04T07:49:53;94624.41;;;6.63;87.01
23176;BME280;19910;42.652;23.332;2023-03-04T07:52:20;94627.47;;;6.70;87.87
23176;BME280;19910;42.652;23.332;2023-03-04T07:54:48;94628.78;;;6.59;87.64
23176;BME280;19910;42.652;23.332;2023-03-04T07:57:15;94627.47;;;7.06;87.48
23176;BME280;19910;42.652;23.332;2023-03-04T07:59:42;94620.28;;;7.46;85.58
23176;BME280;19910;42.652;23.332;2023-03-04T08:02:09;94617.75;;;8.03;83.69
23176;BME280;19910;42.652;23.332;2023-03-04T08:04:36;94580.69;;;7.86;81.24
23176;BME280;19910;42.652;23.332;2023-03-04T08:07:03;94626.59;;;7.41;82.90
23176;BME280;19910;42.652;23.332;2023-03-04T08:09:30;94621.63;;;7.57;83.28
23176;BME280;19910;42.652;23.332;2023-03-04T08:11:58;94620.72;;;7.39;84.23
23176;BME280;19910;42.652;23.332;2023-03-04T08:14:25;94621.13;;;7.77;82.31
23176;BME280;19910;42.652;23.332;2023-03-04T08:16:51;94617.63;;;8.16;80.16
23176;BME280;19910;42.652;23.332;2023-03-04T08:19:18;94612.81;;;8.44;79.98
23176;BME280;19910;42.652;23.332;2023-03-04T08:21:45;94613.66;;;8.71;78.48
23176;BME280;19910;42.652;23.332;2023-03-04T08:24:12;94611.56;;;8.50;79.11
23176;BME280;19910;42.652;23.332;2023-03-04T08:26:41;94610.47;;;8.69;78.79
23176;BME280;19910;42.652;23.332;2023-03-04T08:29:12;94611.59;;;8.76;78.70
23176;BME280;19910;42.652;23.332;2023-03-04T08:31:38;94610.03;;;9.01;76.95
23176;BME280;19910;42.652;23.332;2023-03-04T08:34:06;94604.50;;;10.34;89.50
23176;BME280;19910;42.652;23.332;2023-03-04T08:36:35;94599.63;;;11.19;92.13
23176;BME280;19910;42.652;23.332;2023-03-04T08:39:02;94587.03;;;11.68;81.94
23176;BME280;19910;42.652;23.332;2023-03-04T08:41:29;94585.25;;;12.30;80.06
23176;BME280;19910;42.652;23.332;2023-03-04T08:43:56;94590.41;;;12.59;71.81
23176;BME280;19910;42.652;23.332;2023-03-04T08:46:24;94577.75;;;12.63;71.51
23176;BME280;19910;42.652;23.332;2023-03-04T08:48:50;94591.28;;;11.24;70.19
23176;BME280;19910;42.652;23.332;2023-03-04T08:51:17;94587.31;;;10.30;76.25
23176;BME280;19910;42.652;23.332;2023-03-04T08:53:44;94588.19;;;10.05;74.60
23176;BME280;19910;42.652;23.332;2023-03-04T08:56:12;94591.59;;;9.93;71.00
23176;BME280;19910;42.652;23.332;2023-03-04T08:58:39;94601.44;;;9.16;72.62
23176;BME280;19910;42.652;23.332;2023-03-04T09:01:07;94597.59;;;9.52;72.12
23176;BME280;19910;42.652;23.332;2023-03-04T09:03:37;94596.59;;;9.65;72.64
23176;BME280;19910;42.652;23.332;2023-03-04T09:06:05;94597.59;;;9.35;73.04
23176;BME280;19910;42.652;23.332;2023-03-04T09:08:33;94594.63;;;9.02;74.96
23176;BME280;19910;42.652;23.332;2023-03-04T09:11:00;94599.88;;;8.98;75.19
23176;BME280;19910;42.652;23.332;2023-03-04T09:13:28;94589.63;;;8.43;76.27
23176;BME280;19910;42.652;23.332;2023-03-04T09:15:55;94595.09;;;8.21;78.23
23176;BME280;19910;42.652;23.332;2023-03-04T09:18:23;94585.56;;;8.15;78.34
23176;BME280;19910;42.652;23.332;2023-03-04T09:20:52;94589.69;;;8.95;77.00
23176;BME280;19910;42.652;23.332;2023-03-04T09:23:19;94579.66;;;9.21;75.04
23176;BME280;19910;42.652;23.332;2023-03-04T09:25:46;94577.03;;;9.59;72.28
23176;BME280;19910;42.652;23.332;2023-03-04T09:28:15;94567.25;;;9.84;72.46
23176;BME280;19910;42.652;23.332;2023-03-04T09:30:42;94564.31;;;10.07;70.84
23176;BME280;19910;42.652;23.332;2023-03-04T09:33:09;94563.88;;;9.96;70.42
23176;BME280;19910;42.652;23.332;2023-03-04T09:35:36;94572.81;;;10.26;69.99
23176;BME280;19910;42.652;23.332;2023-03-04T09:38:04;94563.09;;;10.54;69.32
23176;BME280;19910;42.652;23.332;2023-03-04T09:40:37;94574.72;;;9.41;70.63
23176;BME280;19910;42.652;23.332;2023-03-04T09:43:10;94579.66;;;8.78;74.01
23176;BME280;19910;42.652;23.332;2023-03-04T09:45:41;94569.00;;;9.16;74.19
23176;BME280;19910;42.652;23.332;2023-03-04T09:48:14;94564.53;;;9.38;73.55
23176;BME280;19910;42.652;23.332;2023-03-04T09:50:50;94564.88;;;9.10;73.41
23176;BME280;19910;42.652;23.332;2023-03-04T09:53:24;94563.06;;;9.49;71.91
23176;BME280;19910;42.652;23.332;2023-03-04T09:55:56;94560.75;;;9.77;70.42
23176;BME280;19910;42.652;23.332;2023-03-04T09:58:37;94537.34;;;10.48;68.78
23176;BME280;19910;42.652;23.332;2023-03-04T10:01:10;94545.94;;;10.71;67.66
23176;BME280;19910;42.652;23.332;2023-03-04T10:03:42;94541.25;;;11.01;67.30
23176;BME280;19910;42.652;23.332;2023-03-04T10:06:15;94539.41;;;10.93;66.40
23176;BME280;19910;42.652;23.332;2023-03-04T10:08:52;94534.38;;;11.36;65.50
23176;BME280;19910;42.652;23.332;2023-03-04T10:11:24;94540.28;;;11.51;65.35
23176;BME280;19910;42.652;23.332;2023-03-04T10:14:01;94531.97;;;11.35;64.87
23176;BME280;19910;42.652;23.332;2023-03-04T10:16:33;94531.63;;;11.24;64.72
23176;BME280;19910;42.652;23.332;2023-03-04T10:19:19;94530.22;;;11.06;65.21
23176;BME280;19910;42.652;23.332;2023-03-04T10:21:49;94534.13;;;9.87;68.03
23176;BME280;19910;42.652;23.332;2023-03-04T10:24:19;94525.53;;;9.85;69.52
23176;BME280;19910;42.652;23.332;2023-03-04T10:26:50;94528.09;;;9.90;69.76
23176;BME280;19910;42.652;23.332;2023-03-04T10:29:21;94523.47;;;9.91;69.07
23176;BME280;19910;42.652;23.332;2023-03-04T10:31:49;94522.81;;;10.53;67.36
23176;BME280;19910;42.652;23.332;2023-03-04T10:34:17;94506.66;;;10.98;65.46
23176;BME280;19910;42.652;23.332;2023-03-04T10:36:52;94499.22;;;10.53;65.66
23176;BME280;19910;42.652;23.332;2023-03-04T10:39:25;94501.56;;;10.63;65.92
23176;BME280;19910;42.652;23.332;2023-03-04T10:41:55;94497.72;;;10.44;66.53
23176;BME280;19910;42.652;23.332;2023-03-04T10:44:22;94495.59;;;10.49;66.02
23176;BME280;19910;42.652;23.332;2023-03-04T10:46:52;94500.00;;;10.04;67.71
23176;BME280;19910;42.652;23.332;2023-03-04T10:49:20;94503.72;;;9.90;68.70
23176;BME280;19910;42.652;23.332;2023-03-04T10:51:51;94487.16;;;10.51;67.77
23176;BME280;19910;42.652;23.332;2023-03-04T10:54:26;94482.66;;;10.76;66.61
23176;BME280;19910;42.652;23.332;2023-03-04T10:56:58;94481.34;;;10.94;66.86
23176;BME280;19910;42.652;23.332;2023-03-04T10:59:42;94482.66;;;10.76;66.19
23176;BME280;19910;42.652;23.332;2023-03-04T11:02:17;94466.41;;;10.76;66.89
23176;BME280;19910;42.652;23.332;2023-03-04T11:04:51;94473.63;;;10.84;65.94
23176;BME280;19910;42.652;23.332;2023-03-04T11:07:19;94464.38;;;10.85;67.43
23176;BME280;19910;42.652;23.332;2023-03-04T11:09:47;94463.06;;;10.91;65.11
23176;BME280;19910;42.652;23.332;2023-03-04T11:12:16;94457.09;;;10.97;65.40
23176;BME280;19910;42.652;23.332;2023-03-04T11:14:45;94456.91;;;10.49;67.36
23176;BME280;19910;42.652;23.332;2023-03-04T11:17:22;94448.66;;;10.16;67.99
23176;BME280;19910;42.652;23.332;2023-03-04T11:19:54;94445.28;;;9.69;69.28
23176;BME280;19910;42.652;23.332;2023-03-04T11:22:22;94441.78;;;9.97;71.11
23176;BME280;19910;42.652;23.332;2023-03-04T11:24:57;94444.69;;;9.92;69.63
23176;BME280;19910;42.652;23.332;2023-03-04T11:27:33;94445.06;;;9.44;72.17
23176;BME280;19910;42.652;23.332;2023-03-04T11:30:15;94430.91;;;9.47;72.88
23176;BME280;19910;42.652;23.332;2023-03-04T11:32:48;94423.50;;;9.94;71.16
23176;BME280;19910;42.652;23.332;2023-03-04T11:35:23;94429.88;;;9.90;72.26
23176;BME280;19910;42.652;23.332;2023-03-04T11:37:57;94423.75;;;9.81;71.22
23176;BME280;19910;42.652;23.332;2023-03-04T11:40:33;94427.50;;;9.88;71.52
23176;BME280;19910;42.652;23.332;2023-03-04T11:43:04;94421.22;;;10.26;70.19
23176;BME280;19910;42.652;23.332;2023-03-04T11:45:49;94410.59;;;10.42;70.63
23176;BME280;19910;42.652;23.332;2023-03-04T11:48:29;94405.69;;;10.89;70.03
23176;BME280;19910;42.652;23.332;2023-03-04T11:51:02;94408.44;;;11.01;68.15
23176;BME280;19910;42.652;23.332;2023-03-04T11:53:36;94400.81;;;11.52;67.48
23176;BME280;19910;42.652;23.332;2023-03-04T11:56:28;94388.38;;;11.26;66.85
23176;BME280;19910;42.652;23.332;2023-03-04T11:59:10;94395.25;;;11.24;68.20
23176;BME280;19910;42.652;23.332;2023-03-04T12:01:48;94394.13;;;11.49;68.04
23176;BME280;19910;42.652;23.332;2023-03-04T12:04:26;94389.44;;;10.89;66.94
23176;BME280;19910;42.652;23.332;2023-03-04T12:09:55;94396.53;;;10.27;69.53
23176;BME280;19910;42.652;23.332;2023-03-04T12:12:40;94386.88;;;10.18;69.79
23176;BME280;19910;42.652;23.332;2023-03-04T12:15:17;94386.72;;;10.23;69.18
23176;BME280;19910;42.652;23.332;2023-03-04T12:17:58;94387.75;;;10.96;67.28
23176;BME280;19910;42.652;23.332;2023-03-04T12:21:04;94372.81;;;11.48;65.42
23176;BME280;19910;42.652;23.332;2023-03-04T12:24:04;94374.81;;;11.51;65.34
23176;BME280;19910;42.652;23.332;2023-03-04T12:26:39;94376.19;;;11.32;66.88
23176;BME280;19910;42.652;23.332;2023-03-04T12:29:14;94366.94;;;11.33;66.67
23176;BME280;19910;42.652;23.332;2023-03-04T12:31:48;94371.50;;;11.09;67.40
23176;BME280;19910;42.652;23.332;2023-03-04T12:34:30;94368.94;;;11.49;65.41
23176;BME280;19910;42.652;23.332;2023-03-04T12:37:21;94362.19;;;11.30;66.20
23176;BME280;19910;42.652;23.332;2023-03-04T12:40:15;94359.00;;;11.77;65.39
23176;BME280;19910;42.652;23.332;2023-03-04T12:43:07;94368.50;;;11.83;64.54
23176;BME280;19910;42.652;23.332;2023-03-04T12:45:44;94359.59;;;10.77;66.02
23176;BME280;19910;42.652;23.332;2023-03-04T12:48:22;94366.94;;;10.43;68.77
23176;BME280;19910;42.652;23.332;2023-03-04T12:51:02;94353.44;;;10.55;67.79
23176;BME280;19910;42.652;23.332;2023-03-04T12:53:36;94349.28;;;10.25;68.13
23176;BME280;19910;42.652;23.332;2023-03-04T12:56:21;94357.28;;;10.54;67.84
23176;BME280;19910;42.652;23.332;2023-03-04T12:58:48;94342.88;;;10.62;67.22
23176;BME280;19910;42.652;23.332;2023-03-04T13:01:21;94345.94;;;10.40;68.39
23176;BME280;19910;42.652;23.332;2023-03-04T13:03:54;94330.41;;;10.49;67.51
23176;BME280;19910;42.652;23.332;2023-03-04T13:06:35;94338.56;;;10.28;68.78
23176;BME280;19910;42.652;23.332;2023-03-04T13:09:11;94334.44;;;10.43;68.34
23176;BME280;19910;42.652;23.332;2023-03-04T13:11:50;94327.59;;;10.58;67.66